sensor_id;sensor_type;location;lat;lon;timestamp;temperature;humidity
20973;DHT22;10645;52.370;13.314;2023-03-23T00:01:07;10.80;99.90
20973;DHT22;10645;52.370;13.314;2023-03-23T00:03:36;10.70;99.90
20973;DHT22;10645;52.370;13.314;2023-03-23T00:06:03;10.70;99.90
20973;DHT22;10645;52.370;13.314;2023-03-23T00:08:35;10.60;99.90
20973;DHT22;10645;52.370;13.314;2023-03-23T00:11:12;10.50;99.90
20973;DHT22;10645;52.370;13.314;2023-03-23T00:13:42;10.50;99.90
20973;DHT22;10645;52.370;13.314;2023-03-23T00:16:09;10.40;99.90
20973;DHT22;10645;52.370;13.314;2023-03-23T00:18:50;10.30;99.90
20973;DHT22;10645;52.370;13.314;2023-03-23T00:21:20;10.30;99.90
20973;DHT22;10645;52.370;13.314;2023-03-23T00:23:52;10.30;99.90
20973;DHT22;10645;52.370;13.314;2023-03-23T00:26:18;10.30;99.90
20973;DHT22;10645;52.370;13.314;2023-03-23T00:28:44;10.20;99.90
20973;DHT22;10645;52.370;13.314;2023-03-23T00:31:12;10.10;99.90
20973;DHT22;10645;52.370;13.314;2023-03-23T00:33:39;10.10;99.90
20973;DHT22;10645;52.370;13.314;2023-03-23T00:36:08;10.10;99.90
20973;DHT22;10645;52.370;13.314;2023-03-23T00:38:35;10.10;99.90
20973;DHT22;10645;52.370;13.314;2023-03-23T00:41:02;10.10;99.90
20973;DHT22;10645;52.370;13.314;2023-03-23T00:43:29;10.10;99.90
20973;DHT22;10645;52.370;13.314;2023-03-23T00:45:57;10.10;99.90
20973;DHT22;10645;52.370;13.314;2023-03-23T00:48:28;10.10;99.90
20973;DHT22;10645;52.370;13.314;2023-03-23T00:50:55;10.10;99.90
20973;DHT22;10645;52.370;13.314;2023-03-23T00:53:22;10.10;99.90
20973;DHT22;10645;52.370;13.314;2023-03-23T00:55:49;10.20;99.90
20973;DHT22;10645;52.370;13.314;2023-03-23T00:58:15;10.10;99.90
20973;DHT22;10645;52.370;13.314;2023-03-23T01:00:42;10.10;99.90
20973;DHT22;10645;52.370;13.314;2023-03-23T01:03:09;10.10;99.90
20973;DHT22;10645;52.370;13.314;2023-03-23T01:05:39;10.10;99.90
20973;DHT22;10645;52.370;13.314;2023-03-23T01:08:05;10.10;99.90
20973;DHT22;10645;52.370;13.314;2023-03-23T01:10:32;10.00;99.90
20973;DHT22;10645;52.370;13.314;2023-03-23T01:12:59;10.00;99.90
20973;DHT22;10645;52.370;13.314;2023-03-23T01:15:27;10.00;99.90
20973;DHT22;10645;52.370;13.314;2023-03-23T01:17:53;9.90;99.90
20973;DHT22;10645;52.370;13.314;2023-03-23T01:20:19;9.90;99.90
20973;DHT22;10645;52.370;13.314;2023-03-23T01:22:46;9.90;99.90
20973;DHT22;10645;52.370;13.314;2023-03-23T01:25:13;9.90;99.90
20973;DHT22;10645;52.370;13.314;2023-03-23T01:27:39;9.90;99.90
20973;DHT22;10645;52.370;13.314;2023-03-23T01:30:08;9.80;99.90
20973;DHT22;10645;52.370;13.314;2023-03-23T01:32:34;9.80;99.90
20973;DHT22;10645;52.370;13.314;2023-03-23T01:35:01;9.70;99.90
20973;DHT22;10645;52.370;13.314;2023-03-23T01:37:27;9.70;99.90
20973;DHT22;10645;52.370;13.314;2023-03-23T01:39:55;9.70;99.90
20973;DHT22;10645;52.370;13.314;2023-03-23T01:42:23;9.70;99.90
20973;DHT22;10645;52.370;13.314;2023-03-23T01:47:19;9.50;99.90
20973;DHT22;10645;52.370;13.314;2023-03-23T01:49:50;9.40;99.90
20973;DHT22;10645;52.370;13.314;2023-03-23T01:52:23;9.40;99.90
20973;DHT22;10645;52.370;13.314;2023-03-23T01:54:53;9.30;99.90
20973;DHT22;10645;52.370;13.314;2023-03-23T01:57:23;9.40;99.90
20973;DHT22;10645;52.370;13.314;2023-03-23T01:59:53;9.50;99.90
20973;DHT22;10645;52.370;13.314;2023-03-23T02:02:24;9.50;99.90
20973;DHT22;10645;52.370;13.314;2023-03-23T02:04:51;9.50;99.90
20973;DHT22;10645;52.370;13.314;2023-03-23T02:07:22;9.60;99.90
20973;DHT22;10645;52.370;13.314;2023-03-23T02:09:51;9.60;99.90
20973;DHT22;10645;52.370;13.314;2023-03-23T02:12:18;9.60;99.90
20973;DHT22;10645;52.370;13.314;2023-03-23T02:14:44;9.70;99.90
20973;DHT22;10645;52.370;13.314;2023-03-23T02:17:24;9.70;99.90
20973;DHT22;10645;52.370;13.314;2023-03-23T02:20:18;9.80;99.90
20973;DHT22;10645;52.370;13.314;2023-03-23T02:23:14;9.90;99.90
20973;DHT22;10645;52.370;13.314;2023-03-23T02:26:19;9.90;99.90
20973;DHT22;10645;52.370;13.314;2023-03-23T02:29:03;10.10;99.90
20973;DHT22;10645;52.370;13.314;2023-03-23T02:34:20;10.30;99.90
20973;DHT22;10645;52.370;13.314;2023-03-23T02:37:09;10.30;99.90
20973;DHT22;10645;52.370;13.314;2023-03-23T02:39:49;10.40;99.90
20973;DHT22;10645;52.370;13.314;2023-03-23T02:42:20;10.50;99.90
20973;DHT22;10645;52.370;13.314;2023-03-23T02:44:50;10.60;99.90
20973;DHT22;10645;52.370;13.314;2023-03-23T02:47:24;10.70;99.90
20973;DHT22;10645;52.370;13.314;2023-03-23T02:49:54;10.70;99.90
20973;DHT22;10645;52.370;13.314;2023-03-23T02:52:30;10.70;99.90
20973;DHT22;10645;52.370;13.314;2023-03-23T02:54:58;10.70;99.90
20973;DHT22;10645;52.370;13.314;2023-03-23T02:57:25;10.70;99.90
20973;DHT22;10645;52.370;13.314;2023-03-23T02:59:54;10.70;99.90
20973;DHT22;10645;52.370;13.314;2023-03-23T03:02:27;10.70;99.90
20973;DHT22;10645;52.370;13.314;2023-03-23T03:07:56;10.80;99.90
20973;DHT22;10645;52.370;13.314;2023-03-23T03:10:31;10.90;99.90
20973;DHT22;10645;52.370;13.314;2023-03-23T03:15:56;10.90;99.90
20973;DHT22;10645;52.370;13.314;2023-03-23T03:18:30;11.00;99.90
20973;DHT22;10645;52.370;13.314;2023-03-23T03:21:04;11.00;99.90
20973;DHT22;10645;52.370;13.314;2023-03-23T03:23:34;11.00;99.90
20973;DHT22;10645;52.370;13.314;2023-03-23T03:26:03;11.10;99.90
20973;DHT22;10645;52.370;13.314;2023-03-23T03:28:49;11.10;99.90
20973;DHT22;10645;52.370;13.314;2023-03-23T03:31:20;11.00;99.90
20973;DHT22;10645;52.370;13.314;2023-03-23T03:33:47;11.00;99.90
20973;DHT22;10645;52.370;13.314;2023-03-23T03:36:23;11.00;99.90
20973;DHT22;10645;52.370;13.314;2023-03-23T03:38:51;10.90;99.90
20973;DHT22;10645;52.370;13.314;2023-03-23T03:41:18;10.90;99.90
20973;DHT22;10645;52.370;13.314;2023-03-23T03:43:46;11.00;99.90
20973;DHT22;10645;52.370;13.314;2023-03-23T03:46:12;11.00;99.90
20973;DHT22;10645;52.370;13.314;2023-03-23T03:48:38;11.00;99.90
20973;DHT22;10645;52.370;13.314;2023-03-23T03:51:04;11.00;99.90
20973;DHT22;10645;52.370;13.314;2023-03-23T03:53:34;11.00;99.90
20973;DHT22;10645;52.370;13.314;2023-03-23T03:56:00;11.00;99.90
20973;DHT22;10645;52.370;13.314;2023-03-23T03:58:32;11.00;99.90
20973;DHT22;10645;52.370;13.314;2023-03-23T04:01:03;10.90;99.90
20973;DHT22;10645;52.370;13.314;2023-03-23T04:03:34;10.90;99.90
20973;DHT22;10645;52.370;13.314;2023-03-23T04:06:04;10.80;99.90
20973;DHT22;10645;52.370;13.314;2023-03-23T04:08:32;10.80;99.90
20973;DHT22;10645;52.370;13.314;2023-03-23T04:10:58;10.80;99.90
20973;DHT22;10645;52.370;13.314;2023-03-23T04:13:25;10.70;99.90
20973;DHT22;10645;52.370;13.314;2023-03-23T04:16:00;10.70;99.90
20973;DHT22;10645;52.370;13.314;2023-03-23T04:18:28;10.70;99.90
20973;DHT22;10645;52.370;13.314;2023-03-23T04:20:55;10.70;99.90
20973;DHT22;10645;52.370;13.314;2023-03-23T04:23:26;10.70;99.90
20973;DHT22;10645;52.370;13.314;2023-03-23T04:25:53;10.70;99.90
20973;DHT22;10645;52.370;13.314;2023-03-23T04:28:24;10.70;99.90
20973;DHT22;10645;52.370;13.314;2023-03-23T04:31:11;10.60;99.90
20973;DHT22;10645;52.370;13.314;2023-03-23T04:33:40;10.60;99.90
20973;DHT22;10645;52.370;13.314;2023-03-23T04:36:06;10.50;99.90
20973;DHT22;10645;52.370;13.314;2023-03-23T04:38:43;10.50;99.90
20973;DHT22;10645;52.370;13.314;2023-03-23T04:41:16;10.50;99.90
20973;DHT22;10645;52.370;13.314;2023-03-23T04:43:50;10.50;99.90
20973;DHT22;10645;52.370;13.314;2023-03-23T04:46:33;10.60;99.90
20973;DHT22;10645;52.370;13.314;2023-03-23T04:49:06;10.60;99.90
20973;DHT22;10645;52.370;13.314;2023-03-23T04:51:35;10.60;99.90
20973;DHT22;10645;52.370;13.314;2023-03-23T04:54:12;10.60;99.90
20973;DHT22;10645;52.370;13.314;2023-03-23T04:56:41;10.60;99.90
20973;DHT22;10645;52.370;13.314;2023-03-23T04:59:11;10.60;99.90
20973;DHT22;10645;52.370;13.314;2023-03-23T05:01:47;10.60;99.90
20973;DHT22;10645;52.370;13.314;2023-03-23T05:04:18;10.60;99.90
20973;DHT22;10645;52.370;13.314;2023-03-23T05:06:55;10.60;99.90
20973;DHT22;10645;52.370;13.314;2023-03-23T05:09:26;10.60;99.90
20973;DHT22;10645;52.370;13.314;2023-03-23T05:11:52;10.60;99.90
20973;DHT22;10645;52.370;13.314;2023-03-23T05:14:18;10.70;99.90
20973;DHT22;10645;52.370;13.314;2023-03-23T05:16:51;10.80;99.90
20973;DHT22;10645;52.370;13.314;2023-03-23T05:19:18;10.80;99.90
20973;DHT22;10645;52.370;13.314;2023-03-23T05:21:45;10.90;99.90
20973;DHT22;10645;52.370;13.314;2023-03-23T05:24:11;10.90;99.90
20973;DHT22;10645;52.370;13.314;2023-03-23T05:26:38;10.90;99.90
20973;DHT22;10645;52.370;13.314;2023-03-23T05:29:12;10.90;99.90
20973;DHT22;10645;52.370;13.314;2023-03-23T05:31:45;10.90;99.90
20973;DHT22;10645;52.370;13.314;2023-03-23T05:34:13;10.90;99.90
20973;DHT22;10645;52.370;13.314;2023-03-23T05:36:48;10.90;99.90
20973;DHT22;10645;52.370;13.314;2023-03-23T05:39:29;10.90;99.90
20973;DHT22;10645;52.370;13.314;2023-03-23T05:42:15;10.90;99.90
20973;DHT22;10645;52.370;13.314;2023-03-23T05:44:49;10.90;99.90
20973;DHT22;10645;52.370;13.314;2023-03-23T05:47:15;10.90;99.90
20973;DHT22;10645;52.370;13.314;2023-03-23T05:49:47;10.80;99.90
20973;DHT22;10645;52.370;13.314;2023-03-23T05:52:16;10.90;99.90
20973;DHT22;10645;52.370;13.314;2023-03-23T05:54:42;11.00;99.90
20973;DHT22;10645;52.370;13.314;2023-03-23T05:57:09;10.90;99.90
20973;DHT22;10645;52.370;13.314;2023-03-23T05:59:44;10.90;99.90
20973;DHT22;10645;52.370;13.314;2023-03-23T06:02:16;10.90;99.90
20973;DHT22;10645;52.370;13.314;2023-03-23T06:04:42;11.00;99.90
20973;DHT22;10645;52.370;13.314;2023-03-23T06:07:16;11.00;99.90
20973;DHT22;10645;52.370;13.314;2023-03-23T06:09:52;11.00;99.90
20973;DHT22;10645;52.370;13.314;2023-03-23T06:12:35;10.90;99.90
20973;DHT22;10645;52.370;13.314;2023-03-23T06:15:05;10.90;99.90
20973;DHT22;10645;52.370;13.314;2023-03-23T06:17:59;10.80;99.90
20973;DHT22;10645;52.370;13.314;2023-03-23T06:20:30;10.70;99.90
20973;DHT22;10645;52.370;13.314;2023-03-23T06:22:59;10.70;99.90
20973;DHT22;10645;52.370;13.314;2023-03-23T06:25:28;10.60;99.90
20973;DHT22;10645;52.370;13.314;2023-03-23T06:27:55;10.70;99.90
20973;DHT22;10645;52.370;13.314;2023-03-23T06:30:22;10.60;99.90
20973;DHT22;10645;52.370;13.314;2023-03-23T06:32:48;10.70;99.90
20973;DHT22;10645;52.370;13.314;2023-03-23T06:35:17;10.60;99.90
20973;DHT22;10645;52.370;13.314;2023-03-23T06:38:09;10.60;99.90
20973;DHT22;10645;52.370;13.314;2023-03-23T06:40:43;10.70;99.90
20973;DHT22;10645;52.370;13.314;2023-03-23T06:43:12;10.70;99.90
20973;DHT22;10645;52.370;13.314;2023-03-23T06:46:07;10.60;99.90
20973;DHT22;10645;52.370;13.314;2023-03-23T06:48:39;10.70;99.90
20973;DHT22;10645;52.370;13.314;2023-03-23T06:51:06;10.70;99.90
20973;DHT22;10645;52.370;13.314;2023-03-23T06:53:33;10.70;99.90
20973;DHT22;10645;52.370;13.314;2023-03-23T06:56:00;10.80;99.90
20973;DHT22;10645;52.370;13.314;2023-03-23T06:58:26;10.80;99.90
20973;DHT22;10645;52.370;13.314;2023-03-23T07:00:56;10.90;99.90
20973;DHT22;10645;52.370;13.314;2023-03-23T07:03:28;10.90;99.90
20973;DHT22;10645;52.370;13.314;2023-03-23T07:05:54;11.00;99.90
20973;DHT22;10645;52.370;13.314;2023-03-23T07:08:24;11.00;99.90
20973;DHT22;10645;52.370;13.314;2023-03-23T07:10:52;10.90;99.90
20973;DHT22;10645;52.370;13.314;2023-03-23T07:13:21;10.90;99.90
20973;DHT22;10645;52.370;13.314;2023-03-23T07:15:51;10.90;99.90
20973;DHT22;10645;52.370;13.314;2023-03-23T07:18:19;10.90;99.90
20973;DHT22;10645;52.370;13.314;2023-03-23T07:20:48;10.90;99.90
20973;DHT22;10645;52.370;13.314;2023-03-23T07:23:16;10.90;99.90
20973;DHT22;10645;52.370;13.314;2023-03-23T07:25:52;11.00;99.90
20973;DHT22;10645;52.370;13.314;2023-03-23T07:28:23;10.90;99.90
20973;DHT22;10645;52.370;13.314;2023-03-23T07:30:51;10.90;99.90
20973;DHT22;10645;52.370;13.314;2023-03-23T07:33:17;10.90;99.90
20973;DHT22;10645;52.370;13.314;2023-03-23T07:35:45;10.90;99.90
20973;DHT22;10645;52.370;13.314;2023-03-23T07:38:14;10.90;99.90
20973;DHT22;10645;52.370;13.314;2023-03-23T07:40:42;11.00;99.90
20973;DHT22;10645;52.370;13.314;2023-03-23T07:43:13;11.00;99.90
20973;DHT22;10645;52.370;13.314;2023-03-23T07:45:59;11.10;99.90
20973;DHT22;10645;52.370;13.314;2023-03-23T07:48:34;11.20;99.90
20973;DHT22;10645;52.370;13.314;2023-03-23T07:51:00;11.30;99.90
20973;DHT22;10645;52.370;13.314;2023-03-23T07:53:29;11.30;99.90
20973;DHT22;10645;52.370;13.314;2023-03-23T07:56:08;11.30;99.90
20973;DHT22;10645;52.370;13.314;2023-03-23T07:58:52;11.30;99.90
20973;DHT22;10645;52.370;13.314;2023-03-23T08:01:18;11.30;99.90
20973;DHT22;10645;52.370;13.314;2023-03-23T08:04:02;11.20;99.90
20973;DHT22;10645;52.370;13.314;2023-03-23T08:06:39;11.20;99.90
20973;DHT22;10645;52.370;13.314;2023-03-23T08:09:33;11.10;99.90
20973;DHT22;10645;52.370;13.314;2023-03-23T08:12:16;11.20;99.90
20973;DHT22;10645;52.370;13.314;2023-03-23T08:15:22;11.40;99.90
20973;DHT22;10645;52.370;13.314;2023-03-23T08:18:04;11.60;99.90
20973;DHT22;10645;52.370;13.314;2023-03-23T08:20:50;11.70;99.90
20973;DHT22;10645;52.370;13.314;2023-03-23T08:23:28;11.70;99.90
20973;DHT22;10645;52.370;13.314;2023-03-23T08:26:20;11.70;99.90
20973;DHT22;10645;52.370;13.314;2023-03-23T08:29:13;11.70;99.90
20973;DHT22;10645;52.370;13.314;2023-03-23T08:31:58;11.70;99.90
20973;DHT22;10645;52.370;13.314;2023-03-23T08:34:32;11.80;99.90
20973;DHT22;10645;52.370;13.314;2023-03-23T08:37:17;11.80;99.90
20973;DHT22;10645;52.370;13.314;2023-03-23T08:40:13;11.80;99.90
20973;DHT22;10645;52.370;13.314;2023-03-23T08:42:50;11.90;99.90
20973;DHT22;10645;52.370;13.314;2023-03-23T08:45:35;11.90;99.90
20973;DHT22;10645;52.370;13.314;2023-03-23T08:48:25;11.90;99.90
20973;DHT22;10645;52.370;13.314;2023-03-23T08:51:23;12.00;99.90
20973;DHT22;10645;52.370;13.314;2023-03-23T08:54:10;12.00;99.90
20973;DHT22;10645;52.370;13.314;2023-03-23T08:57:03;12.00;99.90
20973;DHT22;10645;52.370;13.314;2023-03-23T08:59:29;12.10;99.90
20973;DHT22;10645;52.370;13.314;2023-03-23T09:02:02;12.30;99.90
20973;DHT22;10645;52.370;13.314;2023-03-23T09:04:43;12.40;99.90
20973;DHT22;10645;52.370;13.314;2023-03-23T09:07:24;12.70;99.90
20973;DHT22;10645;52.370;13.314;2023-03-23T09:09:50;12.90;99.90
20973;DHT22;10645;52.370;13.314;2023-03-23T09:12:16;13.00;99.90
20973;DHT22;10645;52.370;13.314;2023-03-23T09:14:42;12.90;99.90
20973;DHT22;10645;52.370;13.314;2023-03-23T09:17:10;12.90;99.90
20973;DHT22;10645;52.370;13.314;2023-03-23T09:19:36;12.80;99.90
20973;DHT22;10645;52.370;13.314;2023-03-23T09:22:02;12.90;99.90
20973;DHT22;10645;52.370;13.314;2023-03-23T09:24:30;13.10;99.90
20973;DHT22;10645;52.370;13.314;2023-03-23T09:26:56;13.00;99.90
20973;DHT22;10645;52.370;13.314;2023-03-23T09:29:25;13.10;99.90
20973;DHT22;10645;52.370;13.314;2023-03-23T09:31:53;13.10;99.90
20973;DHT22;10645;52.370;13.314;2023-03-23T09:34:19;13.20;99.90
20973;DHT22;10645;52.370;13.314;2023-03-23T09:36:46;13.20;99.90
20973;DHT22;10645;52.370;13.314;2023-03-23T09:39:13;13.30;99.90
20973;DHT22;10645;52.370;13.314;2023-03-23T09:42:18;13.40;99.90
20973;DHT22;10645;52.370;13.314;2023-03-23T09:47:45;13.80;99.90
20973;DHT22;10645;52.370;13.314;2023-03-23T09:50:19;14.00;99.90
20973;DHT22;10645;52.370;13.314;2023-03-23T09:52:58;14.20;99.90
20973;DHT22;10645;52.370;13.314;2023-03-23T09:55:25;14.40;99.90
20973;DHT22;10645;52.370;13.314;2023-03-23T10:04:03;14.30;99.90
20973;DHT22;10645;52.370;13.314;2023-03-23T10:06:29;14.20;99.90
20973;DHT22;10645;52.370;13.314;2023-03-23T10:08:58;14.10;99.90
20973;DHT22;10645;52.370;13.314;2023-03-23T10:11:48;14.20;99.90
20973;DHT22;10645;52.370;13.314;2023-03-23T10:16:58;14.10;99.90
20973;DHT22;10645;52.370;13.314;2023-03-23T10:22:31;14.30;99.90
20973;DHT22;10645;52.370;13.314;2023-03-23T10:25:16;14.30;99.90
20973;DHT22;10645;52.370;13.314;2023-03-23T10:28:12;14.40;99.90
20973;DHT22;10645;52.370;13.314;2023-03-23T10:30:45;14.40;99.90
20973;DHT22;10645;52.370;13.314;2023-03-23T10:33:22;14.50;99.90
20973;DHT22;10645;52.370;13.314;2023-03-23T10:35:58;14.60;99.90
20973;DHT22;10645;52.370;13.314;2023-03-23T10:38:38;14.60;99.90
20973;DHT22;10645;52.370;13.314;2023-03-23T10:41:14;14.80;99.90
20973;DHT22;10645;52.370;13.314;2023-03-23T10:43:41;14.80;99.90
20973;DHT22;10645;52.370;13.314;2023-03-23T10:46:35;14.70;99.90
20973;DHT22;10645;52.370;13.314;2023-03-23T10:49:13;14.70;99.90
20973;DHT22;10645;52.370;13.314;2023-03-23T10:51:44;14.60;99.90
20973;DHT22;10645;52.370;13.314;2023-03-23T10:54:11;14.50;99.90
20973;DHT22;10645;52.370;13.314;2023-03-23T10:56:43;14.40;99.90
20973;DHT22;10645;52.370;13.314;2023-03-23T11:01:38;14.50;99.90
20973;DHT22;10645;52.370;13.314;2023-03-23T11:04:12;14.50;99.90
20973;DHT22;10645;52.370;13.314;2023-03-23T11:06:44;14.60;99.90
20973;DHT22;10645;52.370;13.314;2023-03-23T11:09:13;14.60;99.90
20973;DHT22;10645;52.370;13.314;2023-03-23T11:11:43;14.60;99.90
20973;DHT22;10645;52.370;13.314;2023-03-23T11:14:23;14.60;99.90
20973;DHT22;10645;52.370;13.314;2023-03-23T11:16:52;14.70;99.90
20973;DHT22;10645;52.370;13.314;2023-03-23T11:21:55;14.70;99.90
20973;DHT22;10645;52.370;13.314;2023-03-23T11:24:25;14.70;99.90
20973;DHT22;10645;52.370;13.314;2023-03-23T11:26:53;14.70;99.90
20973;DHT22;10645;52.370;13.314;2023-03-23T11:29:25;14.80;99.90
20973;DHT22;10645;52.370;13.314;2023-03-23T11:34:33;14.90;99.90
20973;DHT22;10645;52.370;13.314;2023-03-23T11:37:13;15.00;99.90
20973;DHT22;10645;52.370;13.314;2023-03-23T11:39:59;15.00;99.90
20973;DHT22;10645;52.370;13.314;2023-03-23T11:42:48;15.10;99.90
20973;DHT22;10645;52.370;13.314;2023-03-23T11:45:21;15.30;99.90
20973;DHT22;10645;52.370;13.314;2023-03-23T11:50:57;15.40;99.90
20973;DHT22;10645;52.370;13.314;2023-03-23T11:56:29;15.60;99.90
20973;DHT22;10645;52.370;13.314;2023-03-23T11:58:58;15.80;99.90
20973;DHT22;10645;52.370;13.314;2023-03-23T12:01:41;15.80;99.90
20973;DHT22;10645;52.370;13.314;2023-03-23T12:04:45;15.80;99.90
20973;DHT22;10645;52.370;13.314;2023-03-23T12:07:36;15.90;99.90
20973;DHT22;10645;52.370;13.314;2023-03-23T12:10:38;16.00;99.90
20973;DHT22;10645;52.370;13.314;2023-03-23T12:13:33;16.10;99.90
20973;DHT22;10645;52.370;13.314;2023-03-23T12:16:40;16.00;99.90
20973;DHT22;10645;52.370;13.314;2023-03-23T12:19:19;16.00;99.90
20973;DHT22;10645;52.370;13.314;2023-03-23T12:22:04;16.00;99.90
20973;DHT22;10645;52.370;13.314;2023-03-23T12:24:58;16.00;99.90
20973;DHT22;10645;52.370;13.314;2023-03-23T12:33:33;15.90;99.90
20973;DHT22;10645;52.370;13.314;2023-03-23T12:36:13;15.80;99.90
20973;DHT22;10645;52.370;13.314;2023-03-23T12:39:09;15.70;99.90
20973;DHT22;10645;52.370;13.314;2023-03-23T12:41:49;15.90;99.90
20973;DHT22;10645;52.370;13.314;2023-03-23T12:44:23;15.90;99.90
20973;DHT22;10645;52.370;13.314;2023-03-23T12:47:17;15.90;99.90
20973;DHT22;10645;52.370;13.314;2023-03-23T12:49:54;16.00;99.90
20973;DHT22;10645;52.370;13.314;2023-03-23T12:52:37;16.10;99.90
20973;DHT22;10645;52.370;13.314;2023-03-23T12:55:25;16.00;99.90
20973;DHT22;10645;52.370;13.314;2023-03-23T12:58:02;16.00;99.90
20973;DHT22;10645;52.370;13.314;2023-03-23T13:00:53;16.00;99.90
20973;DHT22;10645;52.370;13.314;2023-03-23T13:03:27;16.10;99.90
20973;DHT22;10645;52.370;13.314;2023-03-23T13:06:07;16.30;99.90
20973;DHT22;10645;52.370;13.314;2023-03-23T13:08:44;16.50;99.90
20973;DHT22;10645;52.370;13.314;2023-03-23T13:11:28;16.60;99.90
20973;DHT22;10645;52.370;13.314;2023-03-23T13:14:11;16.70;99.90
20973;DHT22;10645;52.370;13.314;2023-03-23T13:22:09;16.90;99.90
20973;DHT22;10645;52.370;13.314;2023-03-23T13:24:46;16.80;99.90
20973;DHT22;10645;52.370;13.314;2023-03-23T13:27:15;16.60;99.90
20973;DHT22;10645;52.370;13.314;2023-03-23T13:29:46;16.60;99.90
20973;DHT22;10645;52.370;13.314;2023-03-23T13:32:16;16.70;99.90
20973;DHT22;10645;52.370;13.314;2023-03-23T13:34:43;16.60;99.90
20973;DHT22;10645;52.370;13.314;2023-03-23T13:37:25;16.70;99.90
20973;DHT22;10645;52.370;13.314;2023-03-23T13:39:57;16.60;99.90
20973;DHT22;10645;52.370;13.314;2023-03-23T13:42:27;16.60;99.90
20973;DHT22;10645;52.370;13.314;2023-03-23T13:45:24;16.90;99.90
20973;DHT22;10645;52.370;13.314;2023-03-23T13:48:18;16.80;99.90
20973;DHT22;10645;52.370;13.314;2023-03-23T13:50:55;16.90;99.90
20973;DHT22;10645;52.370;13.314;2023-03-23T13:53:28;17.00;99.90
20973;DHT22;10645;52.370;13.314;2023-03-23T13:56:17;16.80;99.90
20973;DHT22;10645;52.370;13.314;2023-03-23T13:58:51;16.50;99.90
20973;DHT22;10645;52.370;13.314;2023-03-23T14:01:37;16.40;99.90
20973;DHT22;10645;52.370;13.314;2023-03-23T14:04:09;16.40;99.90
20973;DHT22;10645;52.370;13.314;2023-03-23T14:06:36;16.40;99.90
20973;DHT22;10645;52.370;13.314;2023-03-23T14:09:13;16.50;99.90
20973;DHT22;10645;52.370;13.314;2023-03-23T14:11:59;16.50;99.90
20973;DHT22;10645;52.370;13.314;2023-03-23T14:14:33;16.60;99.90
20973;DHT22;10645;52.370;13.314;2023-03-23T14:17:19;16.60;99.90
20973;DHT22;10645;52.370;13.314;2023-03-23T14:19:50;16.50;99.90
20973;DHT22;10645;52.370;13.314;2023-03-23T14:22:33;16.50;99.90
20973;DHT22;10645;52.370;13.314;2023-03-23T14:25:02;16.40;99.90
20973;DHT22;10645;52.370;13.314;2023-03-23T14:27:35;16.20;99.90
20973;DHT22;10645;52.370;13.314;2023-03-23T14:30:03;16.10;99.90
20973;DHT22;10645;52.370;13.314;2023-03-23T14:32:31;16.00;99.90
20973;DHT22;10645;52.370;13.314;2023-03-23T14:34:59;15.80;99.90
20973;DHT22;10645;52.370;13.314;2023-03-23T14:37:25;15.70;99.90
20973;DHT22;10645;52.370;13.314;2023-03-23T14:39:53;15.60;99.90
20973;DHT22;10645;52.370;13.314;2023-03-23T14:42:31;15.60;99.90
20973;DHT22;10645;52.370;13.314;2023-03-23T14:44:59;15.50;99.90
20973;DHT22;10645;52.370;13.314;2023-03-23T14:47:30;15.40;99.90
20973;DHT22;10645;52.370;13.314;2023-03-23T14:49:58;15.40;99.90
20973;DHT22;10645;52.370;13.314;2023-03-23T14:52:27;15.30;99.90
20973;DHT22;10645;52.370;13.314;2023-03-23T14:54:54;15.30;99.90
20973;DHT22;10645;52.370;13.314;2023-03-23T14:57:29;15.30;99.90
20973;DHT22;10645;52.370;13.314;2023-03-23T14:59:56;15.60;99.90
20973;DHT22;10645;52.370;13.314;2023-03-23T15:02:30;15.70;99.90
20973;DHT22;10645;52.370;13.314;2023-03-23T15:05:06;15.80;99.90
20973;DHT22;10645;52.370;13.314;2023-03-23T15:07:36;15.80;99.90
20973;DHT22;10645;52.370;13.314;2023-03-23T15:10:07;15.80;99.90
20973;DHT22;10645;52.370;13.314;2023-03-23T15:12:34;15.70;99.90
20973;DHT22;10645;52.370;13.314;2023-03-23T15:15:04;15.80;99.90
20973;DHT22;10645;52.370;13.314;2023-03-23T15:17:34;15.80;99.90
20973;DHT22;10645;52.370;13.314;2023-03-23T15:20:10;15.70;99.90
20973;DHT22;10645;52.370;13.314;2023-03-23T15:22:45;15.80;99.90
20973;DHT22;10645;52.370;13.314;2023-03-23T15:27:52;15.90;99.90
20973;DHT22;10645;52.370;13.314;2023-03-23T15:33:20;15.90;99.90
20973;DHT22;10645;52.370;13.314;2023-03-23T15:35:54;15.80;99.90
20973;DHT22;10645;52.370;13.314;2023-03-23T15:38:31;15.80;99.90
20973;DHT22;10645;52.370;13.314;2023-03-23T15:41:00;15.80;99.90
20973;DHT22;10645;52.370;13.314;2023-03-23T15:43:28;15.80;99.90
20973;DHT22;10645;52.370;13.314;2023-03-23T15:46:03;15.80;99.90
20973;DHT22;10645;52.370;13.314;2023-03-23T15:48:46;15.80;99.90
20973;DHT22;10645;52.370;13.314;2023-03-23T15:51:14;15.80;99.90
20973;DHT22;10645;52.370;13.314;2023-03-23T15:53:41;15.70;99.90
20973;DHT22;10645;52.370;13.314;2023-03-23T15:56:10;15.60;99.90
20973;DHT22;10645;52.370;13.314;2023-03-23T15:58:37;15.70;99.90
20973;DHT22;10645;52.370;13.314;2023-03-23T16:01:09;15.60;99.90
20973;DHT22;10645;52.370;13.314;2023-03-23T16:03:44;15.50;99.90
20973;DHT22;10645;52.370;13.314;2023-03-23T16:06:13;15.50;99.90
20973;DHT22;10645;52.370;13.314;2023-03-23T16:08:39;15.40;99.90
20973;DHT22;10645;52.370;13.314;2023-03-23T16:11:10;15.40;99.90
20973;DHT22;10645;52.370;13.314;2023-03-23T16:13:37;15.40;99.90
20973;DHT22;10645;52.370;13.314;2023-03-23T16:16:04;15.40;99.90
20973;DHT22;10645;52.370;13.314;2023-03-23T16:18:32;15.40;99.90
20973;DHT22;10645;52.370;13.314;2023-03-23T16:20:58;15.40;99.90
20973;DHT22;10645;52.370;13.314;2023-03-23T16:23:24;15.30;99.90
20973;DHT22;10645;52.370;13.314;2023-03-23T16:25:50;15.30;99.90
20973;DHT22;10645;52.370;13.314;2023-03-23T16:28:16;15.20;99.90
20973;DHT22;10645;52.370;13.314;2023-03-23T16:30:43;15.20;99.90
20973;DHT22;10645;52.370;13.314;2023-03-23T16:33:09;15.10;99.90
20973;DHT22;10645;52.370;13.314;2023-03-23T16:35:36;15.20;99.90
20973;DHT22;10645;52.370;13.314;2023-03-23T16:38:02;15.10;99.90
20973;DHT22;10645;52.370;13.314;2023-03-23T16:40:28;15.10;99.90
20973;DHT22;10645;52.370;13.314;2023-03-23T16:42:54;15.10;99.90
20973;DHT22;10645;52.370;13.314;2023-03-23T16:45:20;15.10;99.90
20973;DHT22;10645;52.370;13.314;2023-03-23T16:47:49;15.00;99.90
20973;DHT22;10645;52.370;13.314;2023-03-23T16:50:17;14.90;99.90
20973;DHT22;10645;52.370;13.314;2023-03-23T16:52:44;14.80;99.90